EAN567 DNAA-DNMK
Flight info
| Callsign | EAN567 |
|---|---|
| Flight time | 0h 33m |
| Altitude | 19000 |
| Route | ABC W225 LUKRO |
| Aircraft | PC12/L-SDFGRWY/S |
Departure
| Time | 2026-04-29 16:54 |
|---|---|
| Airport | Nnamdi Azikiwe International Airport (DNAA) |
Arrival
| Time | 2026-04-29 17:27 |
|---|---|
| Airport | Makurdi Airport (DNMK) |
| Time | Latitude | Longitude | Altitude | Speed | Heading |
|---|---|---|---|---|---|
| 2026-04-29 16:48 | 9.00278 | 7.26825 | 1121 ft | 0 kts | 150° |
| 2026-04-29 16:50 | 9.00276 | 7.26826 | 1121 ft | 3 kts | 149° |
| 2026-04-29 16:51 | 9.00224 | 7.26794 | 1120 ft | 18 kts | 273° |
| 2026-04-29 16:51 | 9.00354 | 7.26703 | 1112 ft | 30 kts | 330° |
| 2026-04-29 16:51 | 9.00557 | 7.26563 | 1114 ft | 42 kts | 316° |
| 2026-04-29 16:51 | 9.00724 | 7.26554 | 1115 ft | 23 kts | 36° |
| 2026-04-29 16:52 | 9.00888 | 7.26666 | 1118 ft | 33 kts | 35° |
| 2026-04-29 16:52 | 9.01113 | 7.26821 | 1118 ft | 44 kts | 35° |
| 2026-04-29 16:52 | 9.01381 | 7.27016 | 1119 ft | 52 kts | 34° |
| 2026-04-29 16:52 | 9.01681 | 7.27229 | 1120 ft | 56 kts | 36° |
| 2026-04-29 16:53 | 9.01944 | 7.27334 | 1123 ft | 29 kts | 291° |
| 2026-04-29 16:53 | 9.01893 | 7.27174 | 1123 ft | 33 kts | 214° |
| 2026-04-29 16:53 | 9.01601 | 7.26973 | 1119 ft | 73 kts | 213° |
| 2026-04-29 16:53 | 9.01068 | 7.26588 | 1119 ft | 112 kts | 214° |
| 2026-04-29 16:54 | 9.00404 | 7.26116 | 1368 ft | 122 kts | 212° |
| 2026-04-29 16:54 | 8.99679 | 7.25630 | 1729 ft | 132 kts | 212° |
| 2026-04-29 16:54 | 8.98884 | 7.25078 | 2190 ft | 139 kts | 214° |
| 2026-04-29 16:54 | 8.98142 | 7.24522 | 2878 ft | 131 kts | 215° |
| 2026-04-29 16:55 | 8.97306 | 7.24230 | 3429 ft | 133 kts | 170° |
| 2026-04-29 16:55 | 8.96566 | 7.24828 | 3833 ft | 151 kts | 118° |
| 2026-04-29 16:55 | 8.96032 | 7.25751 | 4341 ft | 151 kts | 133° |
| 2026-04-29 16:55 | 8.95313 | 7.26525 | 4904 ft | 151 kts | 135° |
| 2026-04-29 16:56 | 8.94590 | 7.27318 | 5398 ft | 155 kts | 134° |
| 2026-04-29 16:56 | 8.93868 | 7.28125 | 5920 ft | 155 kts | 133° |
| 2026-04-29 16:56 | 8.93140 | 7.28934 | 6443 ft | 156 kts | 132° |
| 2026-04-29 16:56 | 8.92414 | 7.29738 | 6989 ft | 154 kts | 130° |
| 2026-04-29 16:57 | 8.91707 | 7.30522 | 7547 ft | 152 kts | 129° |
| 2026-04-29 16:57 | 8.90993 | 7.31313 | 8077 ft | 152 kts | 129° |
| 2026-04-29 16:57 | 8.90278 | 7.32104 | 8592 ft | 153 kts | 128° |
| 2026-04-29 16:57 | 8.89563 | 7.32893 | 9143 ft | 151 kts | 127° |
| 2026-04-29 16:58 | 8.88856 | 7.33676 | 9689 ft | 150 kts | 126° |
| 2026-04-29 16:58 | 8.88149 | 7.34456 | 10164 ft | 151 kts | 127° |
| 2026-04-29 16:58 | 8.87428 | 7.35240 | 10623 ft | 153 kts | 127° |
| 2026-04-29 16:58 | 8.86698 | 7.36028 | 11091 ft | 154 kts | 127° |
| 2026-04-29 16:59 | 8.85978 | 7.36836 | 11552 ft | 155 kts | 126° |
| 2026-04-29 16:59 | 8.85266 | 7.37664 | 12016 ft | 157 kts | 125° |
| 2026-04-29 16:59 | 8.84560 | 7.38509 | 12482 ft | 158 kts | 124° |
| 2026-04-29 16:59 | 8.83863 | 7.39375 | 12944 ft | 159 kts | 123° |
| 2026-04-29 17:00 | 8.83174 | 7.40260 | 13407 ft | 161 kts | 123° |
| 2026-04-29 17:00 | 8.82494 | 7.41167 | 13845 ft | 162 kts | 122° |
| 2026-04-29 17:00 | 8.81827 | 7.42091 | 14259 ft | 163 kts | 121° |
| 2026-04-29 17:00 | 8.81171 | 7.43031 | 14674 ft | 164 kts | 120° |
| 2026-04-29 17:01 | 8.80526 | 7.43989 | 15079 ft | 165 kts | 118° |
| 2026-04-29 17:01 | 8.79896 | 7.44962 | 15494 ft | 166 kts | 117° |
| 2026-04-29 17:01 | 8.79278 | 7.45949 | 15901 ft | 167 kts | 116° |
| 2026-04-29 17:01 | 8.78670 | 7.46958 | 16283 ft | 169 kts | 115° |
| 2026-04-29 17:02 | 8.78075 | 7.47979 | 16697 ft | 169 kts | 115° |
| 2026-04-29 17:02 | 8.77474 | 7.49053 | 16851 ft | 185 kts | 114° |
| 2026-04-29 17:02 | 8.76834 | 7.50246 | 16868 ft | 205 kts | 114° |
| 2026-04-29 17:02 | 8.76141 | 7.51577 | 16866 ft | 221 kts | 114° |
| 2026-04-29 17:03 | 8.75182 | 7.52849 | 16864 ft | 235 kts | 130° |
| 2026-04-29 17:03 | 8.73974 | 7.54015 | 16860 ft | 243 kts | 132° |
| 2026-04-29 17:03 | 8.72746 | 7.55212 | 16860 ft | 247 kts | 131° |
| 2026-04-29 17:03 | 8.71520 | 7.56443 | 16854 ft | 249 kts | 130° |
| 2026-04-29 17:04 | 8.70286 | 7.57682 | 16859 ft | 251 kts | 131° |
| 2026-04-29 17:04 | 8.69045 | 7.58921 | 16855 ft | 251 kts | 131° |
| 2026-04-29 17:04 | 8.67798 | 7.60164 | 16856 ft | 252 kts | 131° |
| 2026-04-29 17:04 | 8.66551 | 7.61410 | 16853 ft | 252 kts | 131° |
| 2026-04-29 17:05 | 8.65306 | 7.62653 | 16854 ft | 252 kts | 131° |
| 2026-04-29 17:05 | 8.64060 | 7.63897 | 16855 ft | 252 kts | 131° |
| 2026-04-29 17:05 | 8.62812 | 7.65143 | 16853 ft | 252 kts | 131° |
| 2026-04-29 17:05 | 8.61580 | 7.66369 | 16849 ft | 252 kts | 131° |
| 2026-04-29 17:06 | 8.60335 | 7.67613 | 16851 ft | 252 kts | 130° |
| 2026-04-29 17:06 | 8.59088 | 7.68860 | 16850 ft | 252 kts | 131° |
| 2026-04-29 17:06 | 8.57837 | 7.70105 | 16847 ft | 252 kts | 131° |
| 2026-04-29 17:06 | 8.56590 | 7.71349 | 16850 ft | 252 kts | 131° |
| 2026-04-29 17:07 | 8.55344 | 7.72593 | 16848 ft | 252 kts | 131° |
| 2026-04-29 17:07 | 8.54098 | 7.73835 | 16847 ft | 252 kts | 131° |
| 2026-04-29 17:07 | 8.52848 | 7.75082 | 16847 ft | 252 kts | 131° |
| 2026-04-29 17:07 | 8.51604 | 7.76324 | 16846 ft | 252 kts | 131° |
| 2026-04-29 17:08 | 8.50354 | 7.77571 | 16844 ft | 252 kts | 130° |
| 2026-04-29 17:08 | 8.49126 | 7.78801 | 16849 ft | 252 kts | 131° |
| 2026-04-29 17:08 | 8.47864 | 7.80059 | 16850 ft | 252 kts | 131° |
| 2026-04-29 17:08 | 8.46616 | 7.81305 | 16845 ft | 252 kts | 131° |
| 2026-04-29 17:09 | 8.45385 | 7.82532 | 16844 ft | 252 kts | 131° |
| 2026-04-29 17:09 | 8.44135 | 7.83776 | 16847 ft | 252 kts | 131° |
| 2026-04-29 17:09 | 8.42885 | 7.85023 | 16842 ft | 252 kts | 131° |
| 2026-04-29 17:09 | 8.41638 | 7.86266 | 16841 ft | 252 kts | 131° |
| 2026-04-29 17:10 | 8.40388 | 7.87511 | 16842 ft | 252 kts | 131° |
| 2026-04-29 17:10 | 8.39141 | 7.88755 | 16841 ft | 252 kts | 131° |
| 2026-04-29 17:10 | 8.37894 | 7.89997 | 16840 ft | 252 kts | 131° |
| 2026-04-29 17:10 | 8.36646 | 7.91240 | 16840 ft | 252 kts | 131° |
| 2026-04-29 17:11 | 8.35399 | 7.92483 | 16837 ft | 252 kts | 131° |
| 2026-04-29 17:11 | 8.34151 | 7.93725 | 16836 ft | 252 kts | 131° |
| 2026-04-29 17:11 | 8.32917 | 7.94955 | 16836 ft | 252 kts | 131° |
| 2026-04-29 17:11 | 8.31670 | 7.96197 | 16836 ft | 252 kts | 131° |
| 2026-04-29 17:12 | 8.30422 | 7.97440 | 16836 ft | 252 kts | 131° |
| 2026-04-29 17:12 | 8.29176 | 7.98681 | 16835 ft | 252 kts | 131° |
| 2026-04-29 17:12 | 8.27924 | 7.99927 | 16834 ft | 252 kts | 131° |
| 2026-04-29 17:12 | 8.27094 | 8.00754 | 16834 ft | 252 kts | 131° |
| 2026-04-29 17:13 | 8.25427 | 8.02416 | 16833 ft | 252 kts | 131° |
| 2026-04-29 17:13 | 8.24177 | 8.03659 | 16832 ft | 252 kts | 131° |
| 2026-04-29 17:13 | 8.22944 | 8.04886 | 16833 ft | 252 kts | 131° |
| 2026-04-29 17:13 | 8.21693 | 8.06131 | 16832 ft | 252 kts | 131° |
| 2026-04-29 17:14 | 8.20443 | 8.07375 | 16832 ft | 252 kts | 131° |
| 2026-04-29 17:14 | 8.19194 | 8.08618 | 16831 ft | 253 kts | 131° |
| 2026-04-29 17:14 | 8.17941 | 8.09865 | 16831 ft | 253 kts | 131° |
| 2026-04-29 17:14 | 8.16689 | 8.11110 | 16829 ft | 253 kts | 131° |
| 2026-04-29 17:15 | 8.15436 | 8.12357 | 16829 ft | 253 kts | 131° |
| 2026-04-29 17:15 | 8.14181 | 8.13605 | 16829 ft | 253 kts | 131° |
| 2026-04-29 17:15 | 8.12930 | 8.14849 | 16829 ft | 253 kts | 131° |
| 2026-04-29 17:15 | 8.11675 | 8.16097 | 16832 ft | 253 kts | 131° |
| 2026-04-29 17:16 | 8.10418 | 8.17347 | 16831 ft | 253 kts | 131° |
| 2026-04-29 17:16 | 8.09166 | 8.18592 | 16831 ft | 253 kts | 131° |
| 2026-04-29 17:16 | 8.07908 | 8.19843 | 16830 ft | 253 kts | 131° |
| 2026-04-29 17:16 | 8.06668 | 8.21075 | 16831 ft | 253 kts | 131° |
| 2026-04-29 17:17 | 8.05412 | 8.22324 | 16829 ft | 253 kts | 131° |
| 2026-04-29 17:17 | 8.04157 | 8.23571 | 16829 ft | 253 kts | 131° |
| 2026-04-29 17:17 | 8.02898 | 8.24822 | 16830 ft | 253 kts | 131° |
| 2026-04-29 17:17 | 8.01643 | 8.26070 | 16828 ft | 253 kts | 131° |
| 2026-04-29 17:18 | 8.00383 | 8.27323 | 16829 ft | 254 kts | 131° |
| 2026-04-29 17:18 | 7.99125 | 8.28573 | 16831 ft | 254 kts | 131° |
| 2026-04-29 17:18 | 7.97855 | 8.29836 | 16651 ft | 260 kts | 131° |
| 2026-04-29 17:18 | 7.96556 | 8.31127 | 16455 ft | 263 kts | 131° |
| 2026-04-29 17:19 | 7.95251 | 8.32422 | 16242 ft | 265 kts | 131° |
| 2026-04-29 17:19 | 7.93948 | 8.33715 | 15668 ft | 259 kts | 131° |
| 2026-04-29 17:19 | 7.92672 | 8.34979 | 15023 ft | 256 kts | 131° |
| 2026-04-29 17:19 | 7.91401 | 8.36243 | 14332 ft | 257 kts | 131° |
| 2026-04-29 17:20 | 7.90125 | 8.37511 | 13662 ft | 258 kts | 132° |
| 2026-04-29 17:20 | 7.88844 | 8.38782 | 12916 ft | 258 kts | 132° |
| 2026-04-29 17:20 | 7.87569 | 8.40047 | 12181 ft | 257 kts | 131° |
| 2026-04-29 17:20 | 7.86298 | 8.41309 | 11465 ft | 255 kts | 131° |
| 2026-04-29 17:21 | 7.85035 | 8.42562 | 10760 ft | 254 kts | 131° |
| 2026-04-29 17:21 | 7.83780 | 8.43809 | 10074 ft | 251 kts | 131° |
| 2026-04-29 17:21 | 7.82536 | 8.45044 | 9358 ft | 249 kts | 131° |
| 2026-04-29 17:21 | 7.81323 | 8.46248 | 8631 ft | 248 kts | 132° |
| 2026-04-29 17:22 | 7.80095 | 8.47466 | 7906 ft | 247 kts | 133° |
| 2026-04-29 17:22 | 7.78871 | 8.48682 | 7193 ft | 246 kts | 133° |
| 2026-04-29 17:22 | 7.77674 | 8.49871 | 6513 ft | 239 kts | 134° |
| 2026-04-29 17:22 | 7.76482 | 8.51050 | 5794 ft | 241 kts | 135° |
| 2026-04-29 17:23 | 7.75282 | 8.52244 | 5073 ft | 243 kts | 135° |
| 2026-04-29 17:23 | 7.74409 | 8.53715 | 4362 ft | 258 kts | 110° |
| 2026-04-29 17:23 | 7.73992 | 8.55484 | 3658 ft | 250 kts | 99° |
| 2026-04-29 17:23 | 7.74171 | 8.57254 | 3248 ft | 256 kts | 76° |
| 2026-04-29 17:24 | 7.74686 | 8.58877 | 3118 ft | 226 kts | 72° |
| 2026-04-29 17:24 | 7.75160 | 8.60263 | 2975 ft | 193 kts | 72° |
| 2026-04-29 17:24 | 7.75578 | 8.61459 | 2811 ft | 175 kts | 72° |
| 2026-04-29 17:24 | 7.75965 | 8.62567 | 2668 ft | 157 kts | 72° |
| 2026-04-29 17:25 | 7.76055 | 8.63609 | 2366 ft | 147 kts | 105° |
| 2026-04-29 17:25 | 7.75545 | 8.64581 | 2108 ft | 170 kts | 134° |
| 2026-04-29 17:25 | 7.74641 | 8.65180 | 1756 ft | 157 kts | 165° |
| 2026-04-29 17:25 | 7.73565 | 8.65313 | 1436 ft | 153 kts | 187° |
| 2026-04-29 17:26 | 7.72691 | 8.64817 | 1043 ft | 153 kts | 231° |
| 2026-04-29 17:26 | 7.72176 | 8.63866 | 719 ft | 142 kts | 244° |
| 2026-04-29 17:26 | 7.71899 | 8.63340 | 499 ft | 117 kts | 235° |
| 2026-04-29 17:26 | 7.71470 | 8.62764 | 357 ft | 96 kts | 227° |
| 2026-04-29 17:27 | 7.71047 | 8.62213 | 323 ft | 102 kts | 231° |
| 2026-04-29 17:27 | 7.70611 | 8.61662 | 319 ft | 86 kts | 224° |
| 2026-04-29 17:27 | 7.70372 | 8.61365 | 329 ft | 30 kts | 228° |
| 2026-04-29 17:27 | 7.70217 | 8.61188 | 334 ft | 38 kts | 201° |
| 2026-04-29 17:28 | 7.70062 | 8.61293 | 336 ft | 27 kts | 81° |
| 2026-04-29 17:28 | 7.70075 | 8.61420 | 332 ft | 20 kts | 191° |
| 2026-04-29 17:28 | 7.70042 | 8.61392 | 334 ft | 0 kts | 227° |